Time;durP1;ratioP1;P1;durP2;ratioP2;P2;SDS_P1;SDS_P2;PMS_P1;PMS_P2;Temp;Humidity;BMP_temperature;BMP_pressure;BME280_temperature;BME280_humidity;BME280_pressure;Samples;Min_cycle;Max_cycle;Signal;HPM_P1;HPM_P2
2022/01/30 00:00:33;;;;;;;15.38;2.45;;;;;;;6.94;67.20;100276.84;5032118;28;20552;-74
2022/01/30 00:02:59;;;;;;;10.60;2.13;;;;;;;6.91;67.42;100261.97;5030948;28;20030;-74
2022/01/30 00:05:24;;;;;;;9.88;2.05;;;;;;;6.82;67.47;100287.28;5029357;28;20122;-74
2022/01/30 00:07:49;;;;;;;15.05;2.70;;;;;;;6.74;67.25;100275.00;5032021;28;20068;-74
2022/01/30 00:10:15;;;;;;;11.00;2.47;;;;;;;6.69;67.69;100257.50;5031921;28;20086;-74
2022/01/30 00:12:54;;;;;;;14.30;2.85;;;;;;;6.64;67.16;100303.78;5031749;28;20033;-74
2022/01/30 00:15:33;;;;;;;14.52;2.80;;;;;;;6.77;67.48;100268.91;5031704;28;20095;-74
2022/01/30 00:18:09;;;;;;;16.33;3.88;;;;;;;6.73;67.08;100290.72;5031833;28;20506;-75
2022/01/30 00:20:35;;;;;;;15.18;2.60;;;;;;;6.68;67.27;100292.44;5031845;28;20077;-75
2022/01/30 00:23:37;;;;;;;18.48;3.72;;;;;;;6.65;67.11;100280.19;5036719;28;20423;-75
2022/01/30 00:25:55;;;;;;;14.38;2.80;;;;;;;6.62;67.81;100289.78;5032464;28;20053;-75
2022/01/30 00:28:24;;;;;;;13.95;2.90;;;;;;;6.55;67.15;100300.25;5031677;28;20041;-75
2022/01/30 00:30:50;;;;;;;17.75;2.60;;;;;;;6.59;67.40;100281.03;5031951;28;20071;-74
2022/01/30 00:33:16;;;;;;;17.58;2.50;;;;;;;6.44;67.49;100275.69;5031447;28;20044;-75
2022/01/30 00:35:41;;;;;;;17.90;2.47;;;;;;;6.40;68.25;100302.75;5031450;28;20029;-75
2022/01/30 00:38:15;;;;;;;17.25;2.53;;;;;;;6.35;68.54;100294.00;5031558;28;20041;-75
2022/01/30 00:40:51;;;;;;;16.20;2.75;;;;;;;6.30;68.35;100288.72;5029664;28;20617;-75
2022/01/30 00:43:18;;;;;;;19.33;2.55;;;;;;;6.21;68.76;100262.44;5027997;28;20033;-75
2022/01/30 00:45:44;;;;;;;14.90;3.00;;;;;;;6.25;68.77;100300.03;5024650;28;20503;-75
2022/01/30 00:48:10;;;;;;;21.35;3.83;;;;;;;6.28;68.35;100274.72;5039486;28;20042;-75
2022/01/30 00:50:36;;;;;;;12.57;2.50;;;;;;;6.33;68.86;100264.25;5029846;28;20087;-75
2022/01/30 00:53:01;;;;;;;13.32;2.58;;;;;;;6.25;68.37;100315.75;5013489;28;20399;-75
2022/01/30 00:55:28;;;;;;;13.13;2.40;;;;;;;6.29;68.92;100275.59;5031020;28;20033;-75
2022/01/30 00:57:54;;;;;;;15.07;2.63;;;;;;;6.20;69.05;100296.50;5031242;28;20040;-76
2022/01/30 01:00:21;;;;;;;15.57;3.40;;;;;;;6.24;69.02;100258.97;5031212;28;20033;-76
2022/01/30 01:02:46;;;;;;;12.75;3.17;;;;;;;6.23;69.18;100260.69;5029998;28;20036;-75
2022/01/30 01:05:13;;;;;;;14.10;3.55;;;;;;;6.21;69.57;100272.94;5029745;28;20435;-75
2022/01/30 01:07:43;;;;;;;20.73;3.00;;;;;;;6.09;70.08;100267.59;5031193;28;20029;-76
2022/01/30 01:10:17;;;;;;;16.35;3.15;;;;;;;6.02;70.32;100279.75;5029912;28;20087;-75
2022/01/30 01:25:50;;;;;;;17.50;2.42;;;;;;;5.97;70.48;100221.19;5031125;28;20029;-75
2022/01/30 01:28:15;;;;;;;16.75;3.38;;;;;;;6.13;68.86;100206.47;5029732;28;20407;-75
2022/01/30 01:30:41;;;;;;;20.27;3.90;;;;;;;6.24;68.41;100219.66;5029644;28;20128;-73
2022/01/30 01:33:06;;;;;;;14.98;2.83;;;;;;;6.31;68.10;100272.13;5029711;28;20029;-75
2022/01/30 01:35:32;;;;;;;11.55;2.83;;;;;;;6.26;67.84;100217.91;5029448;28;20037;-75
2022/01/30 01:37:57;;;;;;;14.48;2.35;;;;;;;6.22;67.65;100232.75;5029492;28;20033;-76
2022/01/30 01:40:23;;;;;;;16.33;3.40;;;;;;;6.18;68.29;100224.84;5029515;28;20030;-75
2022/01/30 01:42:49;;;;;;;16.05;3.08;;;;;;;6.08;68.14;100240.50;5030891;28;20060;-74
2022/01/30 01:45:19;;;;;;;11.88;2.20;;;;;;;6.01;68.54;100225.59;5030497;28;20120;-74
2022/01/30 01:47:45;;;;;;;15.95;2.53;;;;;;;5.94;68.73;100284.03;5031149;28;20061;-74
2022/01/30 01:50:17;;;;;;;12.50;2.03;;;;;;;5.96;68.50;100201.13;5029442;28;20037;-74
2022/01/30 01:52:42;;;;;;;14.15;2.00;;;;;;;6.05;67.90;100205.53;5033661;28;20069;-75
2022/01/30 01:55:08;;;;;;;9.15;1.80;;;;;;;6.10;67.11;100209.06;5016263;28;20477;-75
2022/01/30 01:57:34;;;;;;;9.10;2.15;;;;;;;6.14;67.23;100216.97;5033686;28;20033;-74
2022/01/30 02:00:23;;;;;;;9.10;1.52;;;;;;;6.15;66.90;100242.28;5029787;28;20045;-74
2022/01/30 02:02:48;;;;;;;13.15;2.50;;;;;;;6.13;66.82;100265.00;5034453;28;20042;-74
2022/01/30 02:05:14;;;;;;;8.98;2.10;;;;;;;6.22;67.33;100203.03;5028902;28;20087;-75
2022/01/30 02:08:11;;;;;;;13.45;2.63;;;;;;;6.27;66.69;100238.91;5033020;28;20431;-75
2022/01/30 02:10:40;;;;;;;11.18;2.55;;;;;;;6.26;66.47;100215.28;5038384;28;20037;-75
2022/01/30 02:13:29;;;;;;;11.48;2.65;;;;;;;6.12;66.21;100220.44;5032925;28;20038;-75
2022/01/30 02:24:11;;;;;;;11.82;2.33;;;;;;;5.68;67.24;100176.41;5030847;28;20480;-75
2022/01/30 02:26:41;;;;;;;17.65;2.35;;;;;;;5.75;67.04;100241.06;5016077;28;20041;-74
2022/01/30 02:29:07;;;;;;;12.95;2.50;;;;;;;5.67;66.65;100196.50;5032940;28;20044;-74
2022/01/30 02:31:36;;;;;;;10.68;2.85;;;;;;;5.58;67.44;100277.59;5032570;28;20033;-75
2022/01/30 02:34:02;;;;;;;14.90;2.70;;;;;;;5.68;66.97;100208.72;5032555;28;20064;-74
2022/01/30 02:36:27;;;;;;;16.83;2.55;;;;;;;5.80;66.59;100243.75;5033341;28;20547;-75
2022/01/30 02:38:57;;;;;;;15.63;3.03;;;;;;;5.80;66.38;100222.78;5027889;28;20025;-75
2022/01/30 02:41:22;;;;;;;14.63;2.53;;;;;;;5.90;66.29;100216.78;5033648;28;20034;-75
2022/01/30 02:44:05;;;;;;;11.05;2.25;;;;;;;5.89;66.18;100201.91;5032339;28;20488;-75
2022/01/30 02:46:34;;;;;;;13.40;2.53;;;;;;;5.95;65.88;100238.66;5033357;28;20507;-75
2022/01/30 02:49:12;;;;;;;12.93;2.25;;;;;;;6.00;65.52;100236.06;5033509;28;20495;-75
2022/01/30 02:51:46;;;;;;;16.35;2.60;;;;;;;5.98;65.71;100233.44;5032091;28;20052;-75
2022/01/30 02:54:12;;;;;;;17.15;3.17;;;;;;;6.06;65.04;100202.94;5028714;28;20037;-75
2022/01/30 02:56:39;;;;;;;19.08;2.70;;;;;;;6.04;65.05;100223.00;5032029;28;20388;-75
2022/01/30 02:59:05;;;;;;;16.83;2.58;;;;;;;6.09;65.34;100216.06;5028058;28;20522;-75
2022/01/30 03:01:30;;;;;;;13.63;2.65;;;;;;;6.10;65.06;100220.44;5031935;28;20025;-75
2022/01/30 03:03:55;;;;;;;11.63;2.53;;;;;;;6.03;64.68;100281.53;5032741;28;20045;-75
2022/01/30 03:06:21;;;;;;;15.70;2.88;;;;;;;6.06;64.89;100237.00;5031770;28;20038;-75
2022/01/30 03:08:47;;;;;;;12.35;3.20;;;;;;;6.01;65.03;100250.94;5031859;28;20037;-75
2022/01/30 03:11:12;;;;;;;13.68;2.63;;;;;;;6.07;64.40;100277.16;5031805;28;20041;-75
2022/01/30 03:13:37;;;;;;;15.07;3.38;;;;;;;6.03;65.12;100229.13;5027928;28;20037;-75
2022/01/30 03:16:03;;;;;;;13.60;2.45;;;;;;;5.89;65.15;100243.81;5014261;28;20037;-75
2022/01/30 03:18:31;;;;;;;14.35;2.67;;;;;;;5.92;65.11;100238.59;5031395;28;20025;-75
2022/01/30 03:20:57;;;;;;;12.43;2.78;;;;;;;5.98;64.57;100236.06;5031530;28;20585;-75
2022/01/30 03:23:22;;;;;;;11.65;2.60;;;;;;;6.03;63.75;100278.03;5031702;28;20022;-75
2022/01/30 03:25:54;;;;;;;15.32;2.38;;;;;;;5.97;64.62;100262.25;5031676;28;20033;-75
2022/01/30 03:28:25;;;;;;;13.43;2.53;;;;;;;5.85;64.43;100210.63;5028949;28;20029;-75
2022/01/30 03:31:06;;;;;;;16.73;3.17;;;;;;;5.80;64.07;100236.75;5031270;28;20136;-75
2022/01/30 03:33:35;;;;;;;17.13;3.22;;;;;;;5.71;64.22;100240.19;5031479;28;20033;-74
2022/01/30 03:36:03;;;;;;;17.42;2.58;;;;;;;5.68;64.29;100266.31;5031061;28;20128;-75
2022/01/30 03:38:28;;;;;;;13.43;2.50;;;;;;;5.67;64.66;100237.53;5031376;28;20068;-75
2022/01/30 03:40:54;;;;;;;15.70;2.08;;;;;;;5.71;64.20;100223.56;5031176;28;20053;-75
2022/01/30 03:43:20;;;;;;;13.50;2.22;;;;;;;5.66;65.24;100226.16;5031276;28;20447;-75
2022/01/30 03:45:47;;;;;;;18.25;3.25;;;;;;;5.67;64.43;100241.00;5030940;28;20898;-75
2022/01/30 03:48:14;;;;;;;14.65;3.63;;;;;;;5.75;63.96;100240.22;5030993;28;20045;-75
2022/01/30 03:50:53;;;;;;;17.63;2.67;;;;;;;5.78;64.01;100313.56;5016469;28;20510;-75
2022/01/30 03:53:18;;;;;;;13.73;2.30;;;;;;;5.82;63.75;100276.06;5031045;28;20120;-75
2022/01/30 03:55:44;;;;;;;15.15;2.28;;;;;;;5.80;63.59;100281.28;5030731;28;20033;-75
2022/01/30 03:58:19;;;;;;;16.30;3.55;;;;;;;5.79;64.35;100279.53;5030890;28;20082;-75
2022/01/30 04:00:45;;;;;;;11.50;2.20;;;;;;;5.68;64.33;100294.25;5030928;28;20056;-75
2022/01/30 04:03:11;;;;;;;15.43;3.25;;;;;;;5.71;64.87;100274.22;5030936;28;20472;-75
2022/01/30 04:05:37;;;;;;;16.45;2.63;;;;;;;5.77;64.22;100314.44;5030483;28;20056;-75
2022/01/30 04:08:03;;;;;;;16.10;2.63;;;;;;;5.81;64.02;100251.59;5032075;28;20427;-75
2022/01/30 04:10:48;;;;;;;15.57;2.83;;;;;;;5.70;65.21;100282.91;5028487;28;20124;-74
2022/01/30 04:13:21;;;;;;;15.70;2.75;;;;;;;5.68;65.32;100236.63;5030656;28;20048;-74
2022/01/30 04:16:14;;;;;;;20.08;2.90;;;;;;;5.68;64.58;100281.16;5008871;28;20041;-75
2022/01/30 04:18:48;;;;;;;15.48;2.50;;;;;;;5.69;65.05;100243.66;5030053;28;20045;-75
2022/01/30 04:21:36;;;;;;;17.10;3.15;;;;;;;5.71;65.04;100232.31;5026563;28;20053;-75
2022/01/30 04:24:23;;;;;;;12.02;2.55;;;;;;;5.64;65.35;100227.91;5029067;28;20700;-75
2022/01/30 04:26:55;;;;;;;15.30;2.77;;;;;;;5.55;65.13;100253.97;5030574;28;20396;-75
2022/01/30 04:29:40;;;;;;;15.98;3.17;;;;;;;5.57;65.25;100238.28;5027855;28;20040;-75
2022/01/30 04:32:21;;;;;;;15.70;3.30;;;;;;;5.61;65.27;100196.47;5029868;28;20035;-74
2022/01/30 04:35:11;;;;;;;21.10;3.35;;;;;;;5.61;65.27;100214.78;5027434;28;20496;-75
2022/01/30 04:38:15;;;;;;;17.27;2.67;;;;;;;5.59;65.08;100253.16;5028474;28;20064;-74
2022/01/30 05:04:45;;;;;;;13.52;2.80;;;;;;;5.78;62.85;100190.47;5029741;28;20056;-74
2022/01/30 05:07:32;;;;;;;15.93;3.13;;;;;;;5.74;62.47;100186.06;5030816;28;20124;-74
2022/01/30 05:10:20;;;;;;;20.33;3.28;;;;;;;5.84;62.23;100198.38;5028761;28;20050;-76
2022/01/30 05:13:01;;;;;;;13.18;2.30;;;;;;;5.88;62.63;100200.16;5027158;28;20073;-75
2022/01/30 05:15:39;;;;;;;11.52;2.30;;;;;;;5.77;63.72;100186.97;5027896;28;20400;-75
2022/01/30 05:18:29;;;;;;;17.33;3.05;;;;;;;5.93;62.94;100211.53;5027003;28;20077;-74
2022/01/30 05:21:13;;;;;;;15.95;2.70;;;;;;;5.88;62.82;100173.97;5029767;28;20096;-75
2022/01/30 05:23:53;;;;;;;13.13;2.72;;;;;;;5.87;62.70;100215.00;5026208;28;20116;-75
2022/01/30 05:26:44;;;;;;;14.32;2.63;;;;;;;5.98;62.70;100254.41;5027180;28;20099;-75
2022/01/30 05:29:36;;;;;;;20.17;3.05;;;;;;;5.98;62.14;100264.88;5033173;28;20535;-75
2022/01/30 05:32:12;;;;;;;19.88;2.78;;;;;;;6.01;63.06;100290.22;5033615;28;20084;-74
2022/01/30 05:34:55;;;;;;;13.98;2.75;;;;;;;6.02;62.99;100282.38;5031056;28;20523;-75
2022/01/30 05:37:43;;;;;;;15.07;3.72;;;;;;;5.97;63.11;100251.75;5030070;28;20179;-75
2022/01/30 05:40:28;;;;;;;14.35;2.53;;;;;;;5.95;62.66;100254.38;5028728;28;20570;-75
2022/01/30 05:43:12;;;;;;;16.80;2.65;;;;;;;5.90;63.11;100256.06;5030513;28;20118;-75
2022/01/30 05:45:54;;;;;;;15.57;3.05;;;;;;;5.93;62.37;100287.50;5033095;28;20029;-75
2022/01/30 05:48:48;;;;;;;16.00;2.90;;;;;;;5.90;62.45;100235.09;5031530;28;20037;-75
2022/01/30 05:51:31;;;;;;;18.88;3.53;;;;;;;5.83;62.24;100252.50;5019451;28;20037;-75
2022/01/30 05:54:11;;;;;;;15.98;3.35;;;;;;;5.88;61.08;100274.38;5031027;28;20040;-75
2022/01/30 05:56:37;;;;;;;14.73;3.40;;;;;;;5.82;62.55;100266.47;5033033;28;20407;-74
2022/01/30 05:59:11;;;;;;;22.75;3.60;;;;;;;5.82;62.57;100290.03;5033351;28;20526;-75
2022/01/30 06:01:58;;;;;;;14.88;3.20;;;;;;;5.81;63.03;100274.28;5029846;28;20057;-75
2022/01/30 06:04:23;;;;;;;16.33;3.60;;;;;;;5.85;62.98;100297.91;5033014;28;20072;-75
2022/01/30 06:06:51;;;;;;;20.10;3.22;;;;;;;5.75;62.83;100295.19;5034343;28;20549;-75
2022/01/30 06:11:47;;;;;;;18.30;3.75;;;;;;;5.82;63.08;100342.41;5032916;28;20033;-75
2022/01/30 06:14:13;;;;;;;16.67;3.67;;;;;;;5.81;62.74;100330.16;5032968;28;20037;-75
2022/01/30 06:16:38;;;;;;;17.10;3.03;;;;;;;5.73;62.42;100305.66;5032732;28;20033;-75
2022/01/30 06:19:22;;;;;;;14.60;2.95;;;;;;;5.65;62.94;100276.75;5030176;28;20041;-75
2022/01/30 06:22:06;;;;;;;13.52;3.80;;;;;;;5.59;62.98;100308.13;5034095;28;20045;-74
2022/01/30 06:25:07;;;;;;;12.35;2.80;;;;;;;5.60;63.27;100282.81;5032364;28;20056;-75
2022/01/30 06:27:52;;;;;;;16.55;3.28;;;;;;;5.58;62.79;100306.38;5032254;28;20041;-75
2022/01/30 06:30:36;;;;;;;15.98;3.47;;;;;;;5.64;63.17;100279.38;5030716;28;20094;-75
2022/01/30 06:33:21;;;;;;;16.73;3.42;;;;;;;5.62;63.00;100308.16;5033749;28;20053;-75
2022/01/30 06:36:05;;;;;;;21.55;3.17;;;;;;;5.63;63.09;100293.31;5030589;28;20079;-75
2022/01/30 06:38:37;;;;;;;16.20;3.30;;;;;;;5.65;62.80;100328.25;5026559;28;20033;-75
2022/01/30 06:41:36;;;;;;;14.18;3.22;;;;;;;5.72;63.87;100314.38;5030052;28;20041;-75
2022/01/30 07:05:40;;;;;;;13.02;3.20;;;;;;;5.92;61.30;100375.69;5107825;27;20926;-76
2022/01/30 07:08:12;;;;;;;16.73;3.88;;;;;;;5.88;62.29;100396.59;5064308;28;20035;-76
2022/01/30 07:10:38;;;;;;;17.00;3.67;;;;;;;5.82;62.43;100399.16;5088422;28;20115;-77
2022/01/30 07:13:04;;;;;;;17.77;3.80;;;;;;;5.80;62.54;100400.88;5053575;28;20095;-78
2022/01/30 07:15:29;;;;;;;18.40;4.50;;;;;;;5.80;63.10;100386.03;5088213;28;20032;-75
2022/01/30 07:17:54;;;;;;;16.83;3.88;;;;;;;5.83;61.58;100352.00;5088329;28;20032;-75
2022/01/30 07:20:19;;;;;;;20.85;4.05;;;;;;;5.80;62.02;100383.41;5088187;28;20046;-75
2022/01/30 07:22:45;;;;;;;16.52;3.25;;;;;;;5.84;61.94;100428.84;5070041;28;20127;-75
2022/01/30 07:25:10;;;;;;;16.20;3.35;;;;;;;5.81;62.65;100379.06;5084725;28;20031;-75
2022/01/30 07:27:36;;;;;;;19.02;4.47;;;;;;;5.76;62.45;100365.03;5087625;28;20067;-76
2022/01/30 07:30:03;;;;;;;19.42;3.55;;;;;;;5.87;61.97;100381.75;5084287;28;20088;-75
2022/01/30 07:32:29;;;;;;;19.13;4.18;;;;;;;5.82;62.12;100412.25;5067218;28;20131;-76
2022/01/30 07:34:54;;;;;;;19.98;4.00;;;;;;;5.78;61.97;100397.34;5069303;28;20202;-75
2022/01/30 07:37:19;;;;;;;21.00;3.85;;;;;;;5.84;61.90;100365.97;5088028;28;20078;-75
2022/01/30 07:39:45;;;;;;;19.60;3.35;;;;;;;5.82;61.56;100414.88;5088147;28;20040;-76
2022/01/30 07:42:11;;;;;;;15.07;3.38;;;;;;;5.82;61.25;100401.78;5088012;28;20029;-75
2022/01/30 07:44:38;;;;;;;21.23;5.68;;;;;;;5.88;61.16;100420.16;5071519;28;20036;-76
2022/01/30 07:47:04;;;;;;;20.02;4.53;;;;;;;5.92;61.25;100369.56;5065482;28;20032;-75
2022/01/30 07:49:29;;;;;;;22.15;3.67;;;;;;;5.87;60.94;100398.34;5088378;28;20032;-75
2022/01/30 07:51:54;;;;;;;26.83;4.25;;;;;;;5.92;61.62;100377.41;5069670;28;20094;-75
2022/01/30 07:54:20;;;;;;;20.60;4.47;;;;;;;5.89;60.86;100391.38;5087190;28;20042;-74
2022/01/30 07:56:45;;;;;;;24.75;4.85;;;;;;;5.93;61.43;100385.34;5069557;28;20506;-74
2022/01/30 07:59:11;;;;;;;18.75;4.10;;;;;;;5.93;60.29;100439.44;5087670;28;20097;-76
2022/01/30 08:01:36;;;;;;;18.40;3.53;;;;;;;6.02;60.81;100409.88;5087212;28;20040;-74
2022/01/30 08:04:03;;;;;;;20.38;3.33;;;;;;;6.03;60.21;100402.03;5066959;28;20032;-74
2022/01/30 08:06:29;;;;;;;21.15;4.45;;;;;;;6.03;59.71;100394.16;5074521;28;20115;-76
2022/01/30 08:08:54;;;;;;;16.65;4.10;;;;;;;6.03;60.28;100407.28;5055457;28;20060;-75
2022/01/30 08:11:20;;;;;;;17.20;3.42;;;;;;;6.05;59.62;100361.00;5073940;28;20032;-74
2022/01/30 08:13:45;;;;;;;19.38;4.03;;;;;;;6.03;60.38;100351.38;5073638;28;20083;-75
2022/01/30 08:16:11;;;;;;;22.42;4.82;;;;;;;6.01;60.71;100338.25;5073404;28;20040;-75
2022/01/30 08:18:38;;;;;;;19.73;4.85;;;;;;;5.89;60.70;100353.81;5055598;28;20036;-75
2022/01/30 08:21:04;;;;;;;26.65;4.95;;;;;;;5.87;60.72;100387.00;5069113;28;20086;-75
2022/01/30 08:23:32;;;;;;;20.05;4.63;;;;;;;5.81;61.16;100318.81;5067566;28;20032;-75
2022/01/30 08:25:57;;;;;;;17.10;4.47;;;;;;;5.79;60.77;100317.91;5070560;28;20036;-75
2022/01/30 08:28:22;;;;;;;26.65;5.13;;;;;;;5.79;60.42;100326.69;5073538;28;20036;-74
2022/01/30 08:30:48;;;;;;;24.50;5.25;;;;;;;5.77;60.85;100354.59;5073393;28;20044;-74
2022/01/30 08:33:16;;;;;;;24.85;5.28;;;;;;;5.80;60.50;100366.81;5071764;28;20028;-74
2022/01/30 08:35:42;;;;;;;19.73;4.95;;;;;;;5.91;60.55;100388.75;5072224;28;20063;-75
2022/01/30 08:38:07;;;;;;;20.73;3.80;;;;;;;5.86;60.63;100395.69;5049832;28;20032;-74
2022/01/30 08:40:33;;;;;;;24.55;5.03;;;;;;;5.83;60.15;100421.84;5072095;28;20082;-73
2022/01/30 08:42:58;;;;;;;19.73;4.78;;;;;;;5.89;60.43;100377.38;5070954;28;20031;-75
2022/01/30 08:45:24;;;;;;;22.23;4.97;;;;;;;5.89;60.61;100445.47;5053556;28;20044;-74
2022/01/30 08:47:51;;;;;;;18.70;4.00;;;;;;;5.94;60.58;100378.34;5073029;28;20044;-74
2022/01/30 08:50:18;;;;;;;22.38;4.80;;;;;;;5.93;60.11;100393.19;5072168;28;20116;-76
2022/01/30 08:52:43;;;;;;;21.48;3.90;;;;;;;6.03;59.89;100378.44;5068059;28;20040;-75
2022/01/30 08:55:10;;;;;;;17.13;4.15;;;;;;;6.05;59.60;100434.38;5061683;28;20372;-75
2022/01/30 08:57:35;;;;;;;24.73;4.30;;;;;;;6.15;58.72;100440.56;5072389;28;20138;-75
2022/01/30 09:00:04;;;;;;;16.55;4.45;;;;;;;6.32;58.46;100432.88;5071689;28;20115;-74
2022/01/30 09:02:29;;;;;;;21.50;4.57;;;;;;;6.33;58.36;100446.00;5072193;28;20545;-76
2022/01/30 09:04:54;;;;;;;20.52;3.83;;;;;;;6.40;57.87;100452.19;5050344;28;20028;-76
2022/01/30 09:07:20;;;;;;;20.05;4.30;;;;;;;6.40;57.63;100452.19;5072627;28;20106;-76
2022/01/30 09:09:46;;;;;;;21.60;5.03;;;;;;;6.42;57.31;100570.16;5054218;28;20036;-76
2022/01/30 09:12:12;;;;;;;15.00;3.88;;;;;;;6.43;57.18;100473.19;5055737;28;20487;-76
2022/01/30 09:14:39;;;;;;;22.58;4.85;;;;;;;6.50;57.70;100454.03;5059974;28;20030;-75
2022/01/30 09:17:12;;;;;;;21.98;4.60;;;;;;;6.47;56.57;100534.38;5071917;28;20040;-76
2022/01/30 09:19:41;;;;;;;19.92;4.65;;;;;;;6.37;57.02;100483.63;5054998;28;20032;-75
2022/01/30 09:22:08;;;;;;;29.83;4.60;;;;;;;6.45;56.53;100502.06;5072651;28;20073;-76
2022/01/30 09:24:34;;;;;;;17.15;3.92;;;;;;;6.45;57.76;100523.03;5072543;28;20415;-76
2022/01/30 09:26:59;;;;;;;19.92;4.75;;;;;;;6.44;56.67;100498.53;5068504;28;20033;-76
2022/01/30 09:29:25;;;;;;;20.83;4.32;;;;;;;6.43;56.68;100494.16;5072437;28;20536;-76
2022/01/30 09:31:50;;;;;;;18.75;4.38;;;;;;;6.46;56.89;100504.66;5072475;28;20469;-76
2022/01/30 09:34:15;;;;;;;22.95;4.45;;;;;;;6.39;56.95;100536.03;5071041;28;20028;-76
2022/01/30 09:36:40;;;;;;;25.80;4.95;;;;;;;6.40;56.68;100536.06;5068831;28;20090;-76
2022/01/30 09:39:06;;;;;;;16.55;4.28;;;;;;;6.35;56.78;100563.97;5070841;28;20040;-76
2022/01/30 09:41:33;;;;;;;19.75;3.65;;;;;;;6.39;56.18;100512.44;5070800;28;20028;-75
2022/01/30 09:44:01;;;;;;;17.33;4.57;;;;;;;6.44;56.85;100548.34;5070401;28;20048;-75
2022/01/30 09:46:29;;;;;;;21.05;3.90;;;;;;;6.43;56.28;100557.06;5054197;28;20036;-76
2022/01/30 09:48:54;;;;;;;18.20;3.88;;;;;;;6.36;56.86;100540.38;5071796;28;20039;-76
2022/01/30 09:51:20;;;;;;;29.02;4.35;;;;;;;6.49;56.83;100533.53;5052013;28;20404;-76
2022/01/30 09:53:45;;;;;;;20.98;4.63;;;;;;;6.39;56.92;100512.44;5071747;28;20028;-76
2022/01/30 09:56:10;;;;;;;23.88;5.00;;;;;;;6.35;57.72;100548.25;5059307;28;20127;-76
2022/01/30 09:58:36;;;;;;;24.00;4.82;;;;;;;6.32;57.65;100553.47;5070999;28;20116;-75
2022/01/30 10:01:01;;;;;;;23.15;5.00;;;;;;;6.33;57.88;100581.41;5070998;28;20119;-76
2022/01/30 10:03:27;;;;;;;20.02;4.65;;;;;;;6.36;57.58;100552.63;5062632;28;20033;-76
2022/01/30 10:06:12;;;;;;;18.48;4.05;;;;;;;6.42;57.81;100531.72;5071302;28;20036;-76
2022/01/30 10:08:41;;;;;;;18.70;4.15;;;;;;;6.43;58.31;100541.34;5051424;28;20032;-76
2022/01/30 10:11:26;;;;;;;21.67;4.05;;;;;;;6.36;57.63;100581.44;5071584;28;20055;-76
2022/01/30 10:14:07;;;;;;;21.48;4.57;;;;;;;6.39;58.91;100552.66;5069864;28;20036;-77
2022/01/30 10:16:40;;;;;;;19.63;4.45;;;;;;;6.41;57.91;100577.16;5050629;28;20986;-75
2022/01/30 10:19:11;;;;;;;20.15;4.53;;;;;;;6.36;57.62;100563.09;5071074;28;20119;-76
2022/01/30 10:21:38;;;;;;;25.50;4.43;;;;;;;6.30;58.46;100591.88;5070028;28;20495;-75
2022/01/30 10:24:26;;;;;;;26.48;5.45;;;;;;;6.27;58.76;100577.00;5069556;28;20472;-75
2022/01/30 10:26:54;;;;;;;26.38;5.03;;;;;;;6.29;58.77;100603.22;5052855;28;20039;-75
2022/01/30 10:29:28;;;;;;;17.65;4.50;;;;;;;6.22;58.79;100602.25;5046963;28;20516;-75
2022/01/30 10:32:07;;;;;;;20.30;4.47;;;;;;;6.21;59.18;100581.25;5071422;28;20460;-76
2022/01/30 10:34:35;;;;;;;22.40;4.95;;;;;;;6.19;59.86;100578.66;5051309;28;20035;-76
2022/01/30 10:37:22;;;;;;;28.67;5.85;;;;;;;6.15;59.12;100563.72;5056576;28;20034;-76
2022/01/30 10:40:11;;;;;;;24.05;5.38;;;;;;;6.15;58.96;100603.91;5075583;28;20035;-76
2022/01/30 10:42:39;;;;;;;31.25;5.40;;;;;;;6.23;57.93;100576.94;5056587;28;20032;-76
2022/01/30 10:45:07;;;;;;;30.35;5.88;;;;;;;6.23;58.59;100563.81;5070882;28;20036;-76
2022/01/30 10:47:35;;;;;;;23.23;5.05;;;;;;;6.30;59.06;100577.03;5071538;28;20518;-79
2022/01/30 10:50:00;;;;;;;27.92;5.50;;;;;;;6.28;58.12;100639.03;5071145;28;20028;-76
2022/01/30 10:52:26;;;;;;;29.10;4.75;;;;;;;6.31;57.86;100591.00;5069674;28;20660;-76
2022/01/30 10:55:03;;;;;;;26.40;5.70;;;;;;;6.41;57.87;100605.97;5052212;28;20024;-76
2022/01/30 10:57:28;;;;;;;30.08;5.22;;;;;;;6.45;57.18;100578.94;5047360;28;20054;-75
2022/01/30 10:59:56;;;;;;;29.48;4.93;;;;;;;6.54;56.93;100586.03;5071271;28;20510;-76
2022/01/30 11:02:23;;;;;;;21.98;4.80;;;;;;;6.62;57.55;100562.50;5071050;28;20047;-76
2022/01/30 11:04:50;;;;;;;23.25;5.03;;;;;;;6.65;56.38;100578.28;5070221;28;20039;-76
2022/01/30 11:07:19;;;;;;;22.55;4.80;;;;;;;6.71;56.56;100626.44;5070249;28;20036;-76
2022/01/30 11:10:19;;;;;;;30.77;5.97;;;;;;;6.79;55.56;100605.56;5070726;28;20036;-74
2022/01/30 11:12:56;;;;;;;28.05;5.40;;;;;;;6.68;55.13;100622.88;5070639;28;20043;-76
2022/01/30 11:17:55;;;;;;;26.60;5.20;;;;;;;6.76;54.83;100592.41;5070614;28;20055;-76
2022/01/30 11:20:21;;;;;;;23.55;4.40;;;;;;;6.70;54.86;100592.31;5070488;28;20435;-74
2022/01/30 11:22:48;;;;;;;21.40;4.57;;;;;;;6.70;54.89;100602.81;5070549;28;20123;-75
2022/01/30 11:25:15;;;;;;;19.85;5.25;;;;;;;6.75;54.78;100607.25;5066421;28;20076;-75
2022/01/30 11:27:43;;;;;;;20.95;4.68;;;;;;;6.77;54.61;100616.00;5054062;28;20608;-76
2022/01/30 11:30:09;;;;;;;24.88;5.47;;;;;;;6.67;55.16;100624.63;5052752;28;20047;-76
2022/01/30 11:32:35;;;;;;;22.77;5.30;;;;;;;6.71;54.46;100638.69;5070763;28;20116;-75
2022/01/30 11:35:00;;;;;;;24.05;5.28;;;;;;;6.65;53.86;100630.72;5070739;28;20100;-76
2022/01/30 11:37:29;;;;;;;21.10;4.80;;;;;;;6.59;54.13;100628.91;5070747;28;20040;-76
2022/01/30 11:39:55;;;;;;;23.02;4.95;;;;;;;6.58;53.61;100630.66;5069675;28;20747;-76
2022/01/30 11:42:26;;;;;;;22.65;4.60;;;;;;;6.64;53.73;100666.56;5056284;28;20376;-75
2022/01/30 11:45:03;;;;;;;23.23;5.78;;;;;;;6.71;54.38;100643.94;5055531;28;20043;-76
2022/01/30 11:47:29;;;;;;;25.55;5.03;;;;;;;6.63;54.00;100653.44;5070937;28;20538;-74
2022/01/30 11:50:00;;;;;;;18.73;4.32;;;;;;;6.71;53.82;100657.91;5074463;28;20068;-75
2022/01/30 11:52:50;;;;;;;30.88;6.35;;;;;;;6.76;53.49;100660.59;5073749;28;20094;-75
2022/01/30 11:55:42;;;;;;;20.95;4.28;;;;;;;6.69;53.43;100685.00;5073153;28;20112;-77
2022/01/30 11:58:38;;;;;;;25.33;5.05;;;;;;;6.80;54.27;100658.00;5072823;28;20423;-75
2022/01/30 12:01:25;;;;;;;30.23;5.40;;;;;;;6.77;54.11;100671.09;5053451;28;20525;-75
2022/01/30 12:04:00;;;;;;;26.48;6.28;;;;;;;6.77;52.77;100699.94;5071394;28;20112;-75
2022/01/30 12:06:25;;;;;;;22.73;5.10;;;;;;;6.77;53.05;100672.84;5055740;28;20526;-75
2022/01/30 12:08:55;;;;;;;21.52;5.10;;;;;;;6.73;53.16;100706.03;5074121;28;20115;-75
2022/01/30 12:11:43;;;;;;;26.05;4.97;;;;;;;6.84;53.21;100682.56;5073794;28;20040;-74
2022/01/30 12:14:21;;;;;;;30.05;5.82;;;;;;;6.73;53.19;100713.00;5053766;28;20051;-77
2022/01/30 12:16:52;;;;;;;29.08;5.75;;;;;;;6.78;52.59;100664.09;5066300;28;20079;-75
2022/01/30 12:19:44;;;;;;;26.23;5.03;;;;;;;6.86;52.00;100667.69;5073682;28;20036;-74
2022/01/30 12:22:15;;;;;;;21.52;4.55;;;;;;;6.80;52.84;100688.63;5072870;28;20076;-74
2022/01/30 12:24:40;;;;;;;28.20;5.05;;;;;;;6.87;52.18;100693.09;5051881;28;20138;-75
2022/01/30 12:27:05;;;;;;;24.63;5.55;;;;;;;6.89;52.30;100686.13;5073393;28;20056;-73
2022/01/30 12:29:38;;;;;;;26.35;5.28;;;;;;;6.96;51.46;100711.53;5073133;28;20535;-74
2022/01/30 12:32:22;;;;;;;24.38;4.75;;;;;;;6.85;51.53;100713.16;5068126;28;20045;-75
2022/01/30 12:35:01;;;;;;;23.75;4.90;;;;;;;6.81;51.51;100763.81;5072277;28;20056;-75
2022/01/30 12:37:28;;;;;;;22.70;4.40;;;;;;;6.81;52.48;100690.38;5073231;28;20433;-74
2022/01/30 12:39:55;;;;;;;29.58;5.47;;;;;;;6.90;51.76;100694.84;5055649;28;20036;-75
2022/01/30 12:42:22;;;;;;;27.00;6.13;;;;;;;6.84;52.07;100706.16;5073269;28;20028;-74
2022/01/30 12:44:49;;;;;;;26.30;4.82;;;;;;;6.82;51.97;100712.25;5072532;28;20472;-74
2022/01/30 12:47:16;;;;;;;24.35;4.75;;;;;;;6.83;52.43;100712.25;5073164;28;20085;-75
2022/01/30 12:49:49;;;;;;;27.15;6.65;;;;;;;6.86;52.12;100749.03;5068481;28;20449;-74
2022/01/30 12:54:54;;;;;;;21.10;4.88;;;;;;;6.78;52.25;100725.31;5050206;28;20076;-74
2022/01/30 12:57:21;;;;;;;31.40;5.05;;;;;;;6.79;52.54;100713.09;5055070;28;20410;-74